Time;durP1;ratioP1;P1;durP2;ratioP2;P2;SDS_P1;SDS_P2;PMS_P1;PMS_P2;Temp;Humidity;BMP_temperature;BMP_pressure;BME280_temperature;BME280_humidity;BME280_pressure;Samples;Min_cycle;Max_cycle;Signal;HPM_P1;HPM_P2
2021/12/09 00:02:25;;;;;;;3.35;1.13;;;;;;;19.69;52.50;95300.66;10459628;28;20028;-22
2021/12/09 00:07:26;;;;;;;4.68;1.95;;;;;;;19.81;53.10;95325.75;10455673;28;20037;-22
2021/12/09 00:12:27;;;;;;;3.10;1.40;;;;;;;19.76;52.74;95314.06;10458458;28;20036;-22
2021/12/09 00:17:28;;;;;;;4.90;1.60;;;;;;;19.87;52.38;95329.81;10457542;28;20388;-22
2021/12/09 00:22:29;;;;;;;15.27;2.00;;;;;;;19.83;53.08;95333.34;10452070;28;20036;-22
2021/12/09 00:27:29;;;;;;;4.78;1.55;;;;;;;19.81;53.33;95333.38;10459579;28;20408;-22
2021/12/09 00:32:29;;;;;;;3.90;1.27;;;;;;;19.82;53.17;95344.34;10465776;28;20036;-22
2021/12/09 00:37:37;;;;;;;6.38;1.70;;;;;;;19.79;53.37;95339.34;10456100;28;20411;-22
2021/12/09 00:42:37;;;;;;;6.57;2.38;;;;;;;19.80;53.33;95343.56;10457731;28;20025;-22
2021/12/09 00:47:38;;;;;;;4.50;1.40;;;;;;;19.77;53.42;95348.72;10459745;28;20025;-22
2021/12/09 00:52:38;;;;;;;4.65;1.80;;;;;;;19.72;53.43;95341.22;10457793;28;20476;-22
2021/12/09 00:57:40;;;;;;;5.28;1.25;;;;;;;19.83;53.13;95351.13;10455097;28;20489;-22
2021/12/09 01:02:40;;;;;;;5.70;1.25;;;;;;;19.83;53.11;95358.72;10457224;28;20488;-22
2021/12/09 01:07:42;;;;;;;4.05;1.08;;;;;;;19.82;53.39;95362.13;10455215;28;20116;-22
2021/12/09 01:12:43;;;;;;;3.10;1.42;;;;;;;19.78;53.30;95360.56;10457474;28;20510;-22
2021/12/09 01:17:45;;;;;;;5.03;1.35;;;;;;;19.79;53.49;95368.13;10454918;28;20033;-22
2021/12/09 01:22:46;;;;;;;3.17;1.20;;;;;;;19.79;53.23;95378.28;10460141;28;20033;-22
2021/12/09 01:27:48;;;;;;;2.95;1.45;;;;;;;19.77;53.23;95382.56;10455783;28;20025;-22
2021/12/09 01:32:52;;;;;;;4.75;1.58;;;;;;;19.77;53.38;95374.94;10464982;28;20029;-22
2021/12/09 01:37:59;;;;;;;2.88;1.13;;;;;;;19.77;53.58;95381.75;10461505;28;20029;-22
2021/12/09 01:42:59;;;;;;;1.73;1.00;;;;;;;19.83;53.17;95387.47;10461838;28;20036;-22
2021/12/09 01:48:01;;;;;;;2.78;1.20;;;;;;;19.72;52.87;95361.56;10464169;28;20527;-21
2021/12/09 01:53:04;;;;;;;3.25;0.88;;;;;;;19.84;52.98;95380.72;10462319;28;20040;-22
2021/12/09 01:58:05;;;;;;;6.30;1.38;;;;;;;19.76;53.49;95372.47;10458879;28;20021;-22
2021/12/09 02:03:05;;;;;;;2.53;0.90;;;;;;;19.72;53.13;95375.94;10460981;28;20043;-23
2021/12/09 02:08:06;;;;;;;2.53;1.25;;;;;;;19.81;53.04;95401.94;10460919;28;20044;-22
2021/12/09 02:13:07;;;;;;;5.03;1.75;;;;;;;19.74;53.37;95389.41;10467553;28;20028;-22
2021/12/09 02:18:10;;;;;;;2.33;0.95;;;;;;;19.69;53.34;95383.66;10460777;28;20032;-22
2021/12/09 02:23:15;;;;;;;3.15;1.10;;;;;;;19.79;53.05;95402.84;10463864;28;20108;-22
2021/12/09 02:28:16;;;;;;;4.35;1.05;;;;;;;19.81;53.05;95408.72;10463056;28;20037;-21
2021/12/09 02:33:16;;;;;;;5.25;1.83;;;;;;;19.81;53.28;95401.09;10467016;28;20090;-22
2021/12/09 02:38:17;;;;;;;1.97;1.27;;;;;;;19.88;52.58;95405.13;10460539;28;20432;-23
2021/12/09 02:43:25;;;;;;;3.25;1.30;;;;;;;19.84;53.07;95413.72;10459119;28;20315;-22
2021/12/09 02:48:26;;;;;;;2.45;1.02;;;;;;;19.82;53.07;95418.00;10460394;28;20112;-22
2021/12/09 02:53:26;;;;;;;2.20;1.10;;;;;;;19.80;53.09;95429.91;10461249;28;20115;-22
2021/12/09 02:58:27;;;;;;;3.10;0.77;;;;;;;19.75;52.79;95431.75;10459316;28;20048;-22
2021/12/09 03:03:27;;;;;;;4.47;1.10;;;;;;;19.77;53.37;95440.97;10461815;28;20103;-22
2021/12/09 03:08:35;;;;;;;2.65;1.02;;;;;;;19.79;53.13;95439.25;10458655;28;20025;-22
2021/12/09 03:13:38;;;;;;;4.25;1.20;;;;;;;19.79;53.12;95441.78;10459236;28;20130;-22
2021/12/09 03:18:41;;;;;;;2.72;0.98;;;;;;;19.79;52.99;95453.63;10458208;28;20024;-22
2021/12/09 03:23:41;;;;;;;5.60;1.38;;;;;;;19.82;53.34;95461.16;10455166;28;20089;-22
2021/12/09 03:28:42;;;;;;;3.35;1.13;;;;;;;19.76;53.23;95453.72;10461803;28;20028;-22
2021/12/09 03:33:42;;;;;;;2.90;1.00;;;;;;;19.82;53.18;95468.78;10456882;28;20029;-22
2021/12/09 03:38:43;;;;;;;3.90;1.17;;;;;;;19.68;53.39;95455.63;10463168;28;20093;-22
2021/12/09 03:43:44;;;;;;;3.63;1.05;;;;;;;19.78;53.45;95480.75;10459277;28;20291;-21
2021/12/09 03:48:44;;;;;;;4.60;1.40;;;;;;;19.80;53.64;95483.22;10463101;28;20029;-21
2021/12/09 03:53:45;;;;;;;2.72;1.20;;;;;;;19.76;53.53;95499.44;10460222;28;20295;-23
2021/12/09 03:58:45;;;;;;;1.67;0.97;;;;;;;19.76;53.63;95500.25;10462851;28;20035;-22
2021/12/09 04:03:46;;;;;;;2.30;0.82;;;;;;;19.77;53.46;95491.75;10458726;28;20836;-22
2021/12/09 04:08:48;;;;;;;1.33;0.73;;;;;;;19.79;53.05;95490.03;10455402;28;20081;-22
2021/12/09 04:13:49;;;;;;;1.95;0.98;;;;;;;19.84;53.19;95492.47;10458562;28;20033;-22
2021/12/09 04:18:49;;;;;;;3.78;1.02;;;;;;;19.82;53.19;95491.63;10455186;28;20029;-22
2021/12/09 04:23:49;;;;;;;1.93;1.00;;;;;;;19.79;53.56;95495.13;10455531;28;20116;-22
2021/12/09 04:28:50;;;;;;;2.30;1.00;;;;;;;19.70;53.52;95489.41;10459203;28;20360;-22
2021/12/09 04:33:50;;;;;;;3.07;0.80;;;;;;;19.78;53.51;95502.75;10458044;28;20373;-22
2021/12/09 04:38:50;;;;;;;3.23;0.83;;;;;;;19.78;53.64;95503.59;10459687;28;20285;-22
2021/12/09 04:43:51;;;;;;;2.55;1.08;;;;;;;19.72;53.17;95492.75;10452540;28;20032;-22
2021/12/09 04:48:51;;;;;;;1.97;0.67;;;;;;;19.84;53.02;95507.69;10464354;28;20079;-22
2021/12/09 04:53:52;;;;;;;2.60;1.10;;;;;;;19.85;52.94;95505.09;10469113;28;20622;-23
2021/12/09 04:58:52;;;;;;;3.60;1.17;;;;;;;19.91;52.93;95504.13;10460127;28;20108;-22
2021/12/09 05:03:53;;;;;;;3.13;0.98;;;;;;;19.94;52.57;95509.94;10456786;28;20036;-22
2021/12/09 05:08:53;;;;;;;4.50;0.73;;;;;;;19.93;52.86;95523.53;10454323;28;20476;-22
2021/12/09 05:13:54;;;;;;;4.10;1.13;;;;;;;19.87;52.84;95512.69;10465173;28;20334;-22
2021/12/09 05:19:01;;;;;;;3.53;0.75;;;;;;;19.90;52.53;95543.09;10462218;28;20017;-23
2021/12/09 05:24:02;;;;;;;;;;;;;;;19.89;53.19;95546.50;10462550;28;20028;-22
2021/12/09 05:29:03;;;;;;;2.55;0.80;;;;;;;19.86;52.62;95546.59;10462697;28;19916;-22
2021/12/09 05:34:03;;;;;;;3.78;0.98;;;;;;;19.91;52.62;95560.84;10465684;28;20484;-23
2021/12/09 05:39:07;;;;;;;6.90;1.80;;;;;;;19.91;52.64;95560.84;10469751;28;20032;-21
2021/12/09 05:44:10;;;;;;;5.30;2.00;;;;;;;19.79;49.64;95567.91;10458711;28;20033;-20
2021/12/09 05:49:12;;;;;;;4.35;1.45;;;;;;;19.50;48.40;95542.38;10456089;28;20551;-20
2021/12/09 05:54:13;;;;;;;5.72;1.70;;;;;;;19.51;46.97;95572.78;10466110;28;20377;-20
2021/12/09 05:59:13;;;;;;;2.08;1.23;;;;;;;19.68;48.38;95573.22;10460648;28;20438;-20
2021/12/09 06:04:14;;;;;;;3.90;1.60;;;;;;;19.78;49.58;95573.88;10461573;28;20496;-21
2021/12/09 06:09:15;;;;;;;5.15;1.30;;;;;;;19.77;50.33;95577.28;10464809;28;20119;-21
2021/12/09 06:14:15;;;;;;;6.78;1.60;;;;;;;19.83;50.97;95588.13;10464987;28;20603;-21
2021/12/09 06:19:16;;;;;;;1.75;1.10;;;;;;;19.36;50.77;95547.75;10460671;28;20388;-21
2021/12/09 06:24:18;;;;;;;4.82;1.40;;;;;;;19.50;51.77;95583.81;10460317;28;20086;-21
2021/12/09 06:29:18;;;;;;;10.38;2.03;;;;;;;19.43;52.50;95576.38;10460766;28;20043;-21
2021/12/09 06:34:18;;;;;;;5.63;1.70;;;;;;;19.42;52.67;95588.22;10477627;28;20032;-21
2021/12/09 06:39:19;;;;;;;4.47;1.50;;;;;;;19.45;52.71;95602.53;10461384;28;20029;-21
2021/12/09 06:44:19;;;;;;;7.50;1.83;;;;;;;19.46;53.02;95606.75;10455678;28;20029;-21
2021/12/09 06:49:20;;;;;;;10.57;2.30;;;;;;;19.31;52.65;95610.47;10461396;28;20849;-21
2021/12/09 06:54:20;;;;;;;4.07;1.50;;;;;;;19.41;52.60;95618.72;10462047;28;20032;-21
2021/12/09 06:59:20;;;;;;;5.38;1.80;;;;;;;19.40;52.75;95625.50;10462639;28;20556;-21
2021/12/09 07:04:21;;;;;;;7.70;1.80;;;;;;;19.42;52.74;95617.84;10460373;28;20037;-21
2021/12/09 07:09:27;;;;;;;5.03;2.08;;;;;;;19.41;53.05;95623.81;10455637;28;20306;-21
2021/12/09 07:14:28;;;;;;;3.83;1.15;;;;;;;19.31;52.95;95612.16;10455980;28;20052;-21
2021/12/09 07:19:28;;;;;;;4.97;1.73;;;;;;;19.33;53.01;95626.47;10460115;28;20499;-21
2021/12/09 07:24:28;;;;;;;6.30;1.67;;;;;;;19.32;53.12;95629.03;10459361;28;20032;-22
2021/12/09 07:29:29;;;;;;;7.73;1.87;;;;;;;19.40;53.31;95644.94;10459430;28;20021;-21
2021/12/09 07:34:29;;;;;;;3.88;1.30;;;;;;;19.36;53.21;95636.59;10459186;28;20451;-22
2021/12/09 07:39:32;;;;;;;4.90;1.67;;;;;;;19.37;53.51;95640.78;10459381;28;20485;-21
2021/12/09 07:44:32;;;;;;;6.47;1.65;;;;;;;19.37;53.01;95642.47;10457221;28;20036;-21
2021/12/09 07:49:32;;;;;;;3.00;1.30;;;;;;;19.28;53.55;95635.06;10461231;28;20033;-22
2021/12/09 07:54:33;;;;;;;4.10;1.37;;;;;;;19.27;53.55;95643.53;10458525;28;20685;-21
2021/12/09 07:59:34;;;;;;;3.83;1.55;;;;;;;19.34;53.55;95657.78;10455940;28;20040;-21
2021/12/09 08:04:34;;;;;;;3.38;1.27;;;;;;;19.26;53.60;95649.47;10458549;28;20739;-21
2021/12/09 08:09:34;;;;;;;2.93;1.30;;;;;;;19.31;53.73;95668.81;10454865;28;20497;-22
2021/12/09 08:14:35;;;;;;;4.67;1.60;;;;;;;19.30;53.67;95677.31;10458494;28;20310;-22
2021/12/09 08:19:35;;;;;;;3.38;1.40;;;;;;;19.31;53.61;95681.50;10456571;28;20025;-21
2021/12/09 08:24:36;;;;;;;2.87;1.33;;;;;;;19.31;53.45;95678.97;10456898;28;20025;-22
2021/12/09 08:29:36;;;;;;;4.75;1.50;;;;;;;19.32;53.67;95695.03;10457932;28;20078;-22
2021/12/09 08:34:36;;;;;;;2.40;1.43;;;;;;;19.32;53.63;95702.63;10457565;28;20033;-22
2021/12/09 08:39:37;;;;;;;2.87;1.57;;;;;;;19.31;53.56;95700.97;10458515;28;20032;-22
2021/12/09 08:44:37;;;;;;;2.35;1.13;;;;;;;19.34;53.57;95716.16;10458682;28;20041;-22
2021/12/09 08:49:37;;;;;;;1.57;1.00;;;;;;;19.32;53.66;95721.25;10458909;28;20028;-21
2021/12/09 08:54:38;;;;;;;2.30;0.93;;;;;;;19.33;53.66;95727.19;10456465;28;20029;-21
2021/12/09 08:59:38;;;;;;;2.60;1.10;;;;;;;19.26;53.77;95723.91;10453390;28;20489;-20
2021/12/09 09:04:39;;;;;;;5.18;1.67;;;;;;;19.31;53.43;95722.13;10455097;28;20540;-22
2021/12/09 09:09:40;;;;;;;2.13;1.30;;;;;;;19.31;53.41;95733.97;10452954;28;20489;-21
2021/12/09 09:14:41;;;;;;;1.90;1.38;;;;;;;19.31;53.59;95736.50;10457134;28;20309;-22
2021/12/09 09:19:41;;;;;;;4.07;1.35;;;;;;;19.28;53.71;95739.94;10455281;28;20037;-21
2021/12/09 09:24:42;;;;;;;6.68;2.15;;;;;;;19.25;53.41;95734.91;10456811;28;20089;-21
2021/12/09 09:29:43;;;;;;;2.92;1.30;;;;;;;19.33;53.44;95760.16;10455833;28;20024;-21
2021/12/09 09:34:43;;;;;;;4.15;1.35;;;;;;;19.25;53.48;95759.47;10471364;28;20114;-22
2021/12/09 09:39:44;;;;;;;2.22;1.48;;;;;;;19.27;53.58;95767.88;10455607;28;20068;-21
2021/12/09 09:44:54;;;;;;;2.92;1.33;;;;;;;19.31;53.35;95762.72;10455440;28;20178;-21
2021/12/09 09:49:56;;;;;;;1.23;0.93;;;;;;;19.24;53.60;95763.69;10456051;28;20021;-22
2021/12/09 09:54:59;;;;;;;1.63;1.00;;;;;;;19.33;53.51;95783.00;10455214;28;20036;-21
2021/12/09 09:59:59;;;;;;;2.22;1.02;;;;;;;19.33;53.44;95777.94;10455423;28;20036;-21
2021/12/09 10:05:02;;;;;;;2.05;1.08;;;;;;;19.33;54.30;95777.94;10463364;28;20029;-21
2021/12/09 10:10:08;;;;;;;2.25;1.25;;;;;;;19.31;53.53;95769.47;10459236;28;20472;-21
2021/12/09 10:15:09;;;;;;;1.73;1.40;;;;;;;19.31;53.36;95759.34;10455578;28;20455;-21
2021/12/09 10:20:10;;;;;;;1.17;0.90;;;;;;;19.31;53.37;95765.25;10459008;28;20029;-22
2021/12/09 10:25:20;;;;;;;2.40;1.20;;;;;;;19.28;53.46;95759.41;10463575;28;20039;-21
2021/12/09 10:30:22;;;;;;;2.17;1.20;;;;;;;19.31;53.43;95765.25;10464828;28;20029;-21
2021/12/09 10:35:22;;;;;;;1.77;1.20;;;;;;;19.33;53.49;95760.16;10455285;28;20531;-22
2021/12/09 10:40:30;;;;;;;2.73;1.00;;;;;;;19.34;53.27;95744.06;10461502;28;20039;-21
2021/12/09 10:45:37;;;;;;;2.13;1.35;;;;;;;19.35;53.32;95743.19;10462054;28;20067;-21
2021/12/09 10:50:58;;;;;;;2.67;1.33;;;;;;;19.31;53.35;95749.19;10463707;28;20078;-22
2021/12/09 10:56:05;;;;;;;1.70;1.45;;;;;;;19.37;53.29;95749.06;10457083;28;20726;-21
2021/12/09 11:01:18;;;;;;;1.55;0.80;;;;;;;19.33;53.36;95740.69;10462075;28;20029;-21
2021/12/09 11:06:34;;;;;;;1.17;0.93;;;;;;;19.26;53.45;95726.44;10459263;28;20504;-22
2021/12/09 11:11:43;;;;;;;1.27;0.80;;;;;;;19.33;53.27;95733.06;10459304;28;20032;-22
2021/12/09 11:16:48;;;;;;;1.25;0.98;;;;;;;19.34;53.25;95736.47;10460056;28;20033;-22
2021/12/09 11:21:58;;;;;;;1.23;1.10;;;;;;;19.29;53.31;95733.16;10455851;28;20032;-21
2021/12/09 11:27:02;;;;;;;7.45;1.35;;;;;;;18.85;51.27;95722.94;10462461;28;20025;-22
2021/12/09 11:37:35;;;;;;;2.42;1.40;;;;;;;19.17;52.79;95724.03;10457377;28;20024;-21
2021/12/09 11:42:39;;;;;;;2.40;1.50;;;;;;;19.19;52.75;95709.63;10454624;28;20390;-22
2021/12/09 11:47:42;;;;;;;4.78;0.95;;;;;;;19.31;52.80;95713.66;10459173;28;20519;-21
2021/12/09 11:52:44;;;;;;;2.17;1.00;;;;;;;19.31;53.00;95716.19;10458887;28;20032;-22
2021/12/09 11:57:55;;;;;;;1.58;1.00;;;;;;;19.26;52.61;95710.38;10462217;28;20037;-21
2021/12/09 12:14:46;;;;;;;5.25;1.55;;;;;;;19.34;53.74;95709.34;10453848;28;20048;-21
2021/12/09 12:20:17;;;;;;;5.05;1.45;;;;;;;19.30;53.73;95686.59;10456284;28;20508;-21
2021/12/09 12:36:28;;;;;;;16.83;4.38;;;;;;;19.17;51.16;95702.91;10453995;28;20033;-22
2021/12/09 12:41:28;;;;;;;15.80;6.95;;;;;;;19.18;52.40;95691.91;10455663;28;20064;-21
2021/12/09 12:52:10;;;;;;;16.50;7.35;;;;;;;19.17;52.62;95697.84;10458211;28;20031;-22
2021/12/09 12:57:25;;;;;;;28.42;9.23;;;;;;;19.21;52.64;95697.78;10452943;28;20491;-22
2021/12/09 13:13:18;;;;;;;20.80;10.23;;;;;;;19.29;52.76;95685.78;10448612;28;20124;-22
2021/12/09 13:18:46;;;;;;;19.02;8.93;;;;;;;19.24;53.12;95686.75;10453187;28;20409;-23
2021/12/09 13:24:24;;;;;;;19.65;9.23;;;;;;;19.30;53.21;95691.69;10454226;28;20039;-22
2021/12/09 13:29:39;;;;;;;14.93;8.50;;;;;;;19.28;53.38;95693.41;10454608;28;20631;-21
2021/12/09 13:34:50;;;;;;;22.23;9.68;;;;;;;19.31;53.38;95708.56;10464359;28;20040;-21
2021/12/09 13:55:38;;;;;;;16.77;8.10;;;;;;;19.27;53.75;95696.81;10461016;28;20040;-22
2021/12/09 14:00:43;;;;;;;13.88;7.65;;;;;;;19.24;53.83;95704.50;10467101;28;20552;-21
2021/12/09 14:05:45;;;;;;;18.52;8.85;;;;;;;19.20;54.03;95701.19;10463025;28;20782;-22
2021/12/09 14:10:50;;;;;;;18.70;8.68;;;;;;;19.28;54.05;95713.72;10456248;28;20049;-21
2021/12/09 14:16:05;;;;;;;13.52;7.22;;;;;;;19.35;53.89;95715.28;10460620;28;20373;-22
2021/12/09 14:21:05;;;;;;;16.90;6.90;;;;;;;19.38;53.90;95720.28;10451206;28;20550;-21
2021/12/09 14:26:06;;;;;;;16.33;7.33;;;;;;;19.49;53.74;95713.31;10463575;28;20028;-22
2021/12/09 14:31:06;;;;;;;12.07;6.45;;;;;;;19.41;53.78;95716.00;10462583;28;20037;-21
2021/12/09 14:36:09;;;;;;;11.47;5.70;;;;;;;19.49;54.04;95713.31;10456863;28;20025;-22
2021/12/09 14:41:29;;;;;;;13.73;6.53;;;;;;;19.51;54.20;95714.94;10459328;28;20033;-21
2021/12/09 14:46:36;;;;;;;12.38;6.78;;;;;;;19.55;54.29;95713.19;10462532;28;20420;-22
2021/12/09 14:51:42;;;;;;;13.35;6.05;;;;;;;19.53;54.05;95720.00;10463373;28;20040;-22
2021/12/09 14:56:45;;;;;;;13.60;6.40;;;;;;;19.57;53.99;95716.50;10454219;28;20032;-21
2021/12/09 15:02:12;;;;;;;19.02;6.72;;;;;;;19.51;53.92;95721.72;10458280;28;20657;-21
2021/12/09 15:07:24;;;;;;;12.83;6.87;;;;;;;19.53;53.95;95727.59;10448146;28;20421;-22
2021/12/09 15:12:31;;;;;;;15.85;6.53;;;;;;;19.48;54.03;95740.41;10458806;28;20500;-22
2021/12/09 15:17:34;;;;;;;9.77;5.50;;;;;;;19.48;54.12;95748.00;10456597;28;20108;-23
2021/12/09 15:28:01;;;;;;;15.60;5.65;;;;;;;19.43;54.25;95754.88;10458111;28;20397;-22
2021/12/09 15:33:02;;;;;;;;;;;;;;;19.42;53.99;95747.31;10465462;28;20088;-21
2021/12/09 15:38:03;;;;;;;11.13;5.55;;;;;;;19.41;53.98;95740.56;10454921;28;20007;-21
2021/12/09 15:43:15;;;;;;;10.52;5.70;;;;;;;19.42;53.81;95742.22;10455828;28;20162;-22
2021/12/09 15:48:17;;;;;;;10.43;5.38;;;;;;;19.41;53.98;95745.63;10459074;28;20706;-21
2021/12/09 15:53:18;;;;;;;14.00;4.82;;;;;;;19.50;53.91;95758.97;10456019;28;20043;-22
2021/12/09 15:58:21;;;;;;;8.82;4.72;;;;;;;19.63;53.68;95762.94;10458099;28;20573;-21
2021/12/09 16:03:23;;;;;;;9.38;4.80;;;;;;;19.66;53.28;95762.06;10455101;28;20033;-21
2021/12/09 16:08:23;;;;;;;8.02;4.80;;;;;;;19.60;53.66;95757.09;10454981;28;20029;-21
2021/12/09 16:13:24;;;;;;;8.97;4.57;;;;;;;19.65;52.99;95752.75;10463024;28;20024;-21
2021/12/09 16:18:28;;;;;;;9.85;4.63;;;;;;;19.69;53.38;95772.16;10456360;28;20287;-21
2021/12/09 16:23:29;;;;;;;13.80;5.00;;;;;;;19.65;53.28;95766.28;10454689;28;20029;-21
2021/12/09 16:28:30;;;;;;;9.77;4.63;;;;;;;19.58;53.36;95758.84;10461087;28;20128;-21
2021/12/09 16:33:30;;;;;;;8.60;4.60;;;;;;;19.66;53.14;95777.31;10456999;28;20037;-22
2021/12/09 16:38:34;;;;;;;13.07;6.15;;;;;;;19.66;53.38;95772.22;10454398;28;20141;-21
2021/12/09 16:43:35;;;;;;;6.90;4.32;;;;;;;19.66;53.31;95774.75;10457635;28;20044;-21
2021/12/09 16:48:38;;;;;;;7.07;4.47;;;;;;;19.67;53.24;95779.78;10456774;28;20100;-21
2021/12/09 16:53:51;;;;;;;9.20;4.35;;;;;;;19.63;53.08;95762.94;10458512;28;20156;-21
2021/12/09 16:58:59;;;;;;;8.70;4.40;;;;;;;19.76;52.76;95777.06;10448051;28;20030;-21
2021/12/09 17:04:01;;;;;;;11.43;4.00;;;;;;;19.55;52.09;95756.34;10448544;28;20074;-21
2021/12/09 17:09:03;;;;;;;10.68;4.70;;;;;;;19.78;52.44;95766.88;10469932;28;20098;-21
2021/12/09 17:14:05;;;;;;;9.73;4.15;;;;;;;19.82;52.39;95765.94;10465945;28;20033;-21
2021/12/09 17:19:07;;;;;;;7.28;4.05;;;;;;;19.83;52.49;95760.03;10460359;28;20086;-21
2021/12/09 17:24:08;;;;;;;7.45;4.10;;;;;;;19.69;52.30;95746.75;10461727;28;20036;-21
2021/12/09 17:29:12;;;;;;;6.20;4.15;;;;;;;19.83;52.57;95776.06;10459355;28;20032;-21
2021/12/09 17:34:17;;;;;;;7.03;3.95;;;;;;;19.81;52.63;95769.34;10460502;28;20044;-21
2021/12/09 17:39:18;;;;;;;9.50;3.72;;;;;;;19.83;52.61;95770.19;10466268;28;20059;-21
2021/12/09 17:44:22;;;;;;;7.82;3.58;;;;;;;19.81;52.73;95772.75;10459676;28;20032;-21
2021/12/09 17:49:22;;;;;;;7.20;3.63;;;;;;;19.84;53.15;95762.50;10454266;28;20048;-22
2021/12/09 17:54:22;;;;;;;6.60;3.37;;;;;;;19.81;52.49;95760.03;10460401;28;20048;-21
2021/12/09 17:59:23;;;;;;;8.43;4.33;;;;;;;19.83;53.10;95767.63;10455256;28;20286;-21
2021/12/09 18:04:24;;;;;;;8.80;4.27;;;;;;;19.88;53.35;95773.44;10466500;28;20082;-21
2021/12/09 18:09:24;;;;;;;6.65;4.18;;;;;;;19.71;53.52;95745.00;10471177;28;20300;-21
2021/12/09 18:14:26;;;;;;;8.70;4.43;;;;;;;19.88;53.86;95763.28;10460161;28;20036;-21
2021/12/09 18:19:26;;;;;;;8.45;3.92;;;;;;;19.90;53.56;95766.63;10467918;28;20025;-21
2021/12/09 18:24:27;;;;;;;7.65;3.65;;;;;;;19.93;53.06;95769.13;10464188;28;20039;-21
2021/12/09 18:29:27;;;;;;;7.87;4.07;;;;;;;19.81;53.14;95751.56;10466545;28;20025;-21
2021/12/09 18:34:28;;;;;;;10.88;3.65;;;;;;;19.87;53.05;95757.38;10462155;28;20025;-21
2021/12/09 18:39:36;;;;;;;6.82;2.97;;;;;;;19.83;52.84;95749.84;10465326;28;20020;-20
2021/12/09 18:44:36;;;;;;;6.00;3.17;;;;;;;19.90;52.80;95767.47;10466807;28;20044;-21
2021/12/09 18:49:37;;;;;;;9.37;3.40;;;;;;;19.88;53.18;95773.44;10462564;28;20033;-21
2021/12/09 18:54:40;;;;;;;8.20;3.10;;;;;;;19.88;53.03;95761.59;10460679;28;20392;-21
2021/12/09 18:59:40;;;;;;;6.03;3.53;;;;;;;19.86;53.17;95754.88;10456214;28;20056;-21
2021/12/09 19:04:40;;;;;;;8.93;3.15;;;;;;;19.82;52.80;95743.94;10461104;28;20524;-21
2021/12/09 19:09:41;;;;;;;7.47;3.25;;;;;;;19.89;52.58;95754.78;10459233;28;20114;-22
2021/12/09 19:14:42;;;;;;;6.13;3.10;;;;;;;19.69;52.73;95727.25;10461109;28;20515;-24
2021/12/09 19:19:43;;;;;;;6.82;2.88;;;;;;;19.67;52.79;95729.00;10451479;28;20365;-21
2021/12/09 19:24:43;;;;;;;6.75;3.58;;;;;;;19.72;53.13;95724.69;10454316;28;20466;-21
2021/12/09 19:29:45;;;;;;;5.15;3.10;;;;;;;20.02;53.56;95761.31;10456093;28;20484;-21
2021/12/09 19:34:45;;;;;;;10.80;3.28;;;;;;;20.00;53.47;95760.50;10437288;28;20044;-20
2021/12/09 19:39:48;;;;;;;8.82;3.45;;;;;;;19.79;53.56;95723.69;10456792;28;20468;-20
2021/12/09 19:44:49;;;;;;;11.43;3.88;;;;;;;19.97;54.02;95746.16;10457928;28;20544;-21
2021/12/09 19:49:49;;;;;;;10.97;4.13;;;;;;;19.91;54.35;95748.81;10446980;28;20040;-20
2021/12/09 19:54:50;;;;;;;16.55;4.50;;;;;;;19.97;54.71;95750.38;10455565;28;20261;-21
2021/12/09 19:59:50;;;;;;;10.30;4.78;;;;;;;19.94;54.93;95743.66;10452357;28;20021;-21
2021/12/09 20:04:51;;;;;;;13.77;4.80;;;;;;;19.94;55.49;95733.50;10451533;28;20029;-21
2021/12/09 20:09:51;;;;;;;8.63;4.13;;;;;;;19.98;56.15;95734.28;10454830;28;20043;-21
2021/12/09 20:14:52;;;;;;;8.25;3.63;;;;;;;19.97;55.04;95740.22;10452559;28;20045;-21
2021/12/09 20:19:52;;;;;;;11.40;3.73;;;;;;;19.94;55.06;95728.41;10463683;28;20538;-21
2021/12/09 20:24:54;;;;;;;9.60;3.70;;;;;;;19.93;55.40;95725.94;10467079;28;20554;-21
2021/12/09 20:29:55;;;;;;;9.18;4.32;;;;;;;19.92;55.05;95722.53;10468438;28;20291;-20
2021/12/09 20:34:56;;;;;;;11.70;4.30;;;;;;;19.92;55.87;95714.09;10465401;28;20029;-20
2021/12/09 20:39:56;;;;;;;10.77;3.67;;;;;;;19.86;55.14;95704.88;10456403;28;20029;-21
2021/12/09 20:44:57;;;;;;;8.43;3.73;;;;;;;19.83;55.58;95704.97;10454329;28;20508;-22
2021/12/09 20:49:57;;;;;;;9.03;3.57;;;;;;;19.81;55.24;95705.84;10457963;28;20302;-21
2021/12/09 20:54:58;;;;;;;9.30;4.47;;;;;;;19.75;55.04;95695.84;10463334;28;20048;-22
2021/12/09 20:59:58;;;;;;;10.45;3.88;;;;;;;19.93;54.67;95710.69;10458292;28;20098;-21
2021/12/09 21:04:59;;;;;;;7.07;2.85;;;;;;;19.86;54.37;95698.97;10466297;28;20519;-21
2021/12/09 21:10:00;;;;;;;6.68;2.83;;;;;;;19.89;54.25;95707.38;10465075;28;20048;-20
2021/12/09 21:15:04;;;;;;;11.30;3.40;;;;;;;19.80;54.48;95683.88;10465140;28;20041;-21
2021/12/09 21:20:08;;;;;;;5.72;2.97;;;;;;;19.86;54.43;95681.22;10463534;28;20028;-21
2021/12/09 21:25:11;;;;;;;9.40;4.72;;;;;;;19.86;54.13;95678.66;10461926;28;20055;-21
2021/12/09 21:30:13;;;;;;;9.23;3.28;;;;;;;19.85;54.21;95679.53;10460906;28;20067;-21
2021/12/09 21:35:16;;;;;;;5.85;3.00;;;;;;;19.78;54.07;95660.22;10454106;28;20044;-22
2021/12/09 21:40:21;;;;;;;7.75;2.70;;;;;;;19.84;53.94;95660.09;10462707;28;20545;-21
2021/12/09 21:45:24;;;;;;;10.32;3.22;;;;;;;19.83;53.39;95640.66;10455402;28;20025;-21
2021/12/09 21:50:24;;;;;;;8.80;3.13;;;;;;;19.89;53.58;95637.94;10451333;28;20025;-24
2021/12/09 21:55:25;;;;;;;6.35;2.72;;;;;;;19.88;53.84;95626.13;10464628;28;20036;-23
2021/12/09 22:00:27;;;;;;;7.32;3.10;;;;;;;19.83;53.91;95612.72;10468675;28;20025;-21
2021/12/09 22:05:29;;;;;;;9.77;3.50;;;;;;;19.83;53.88;95603.38;10466545;28;20108;-21
2021/12/09 22:10:30;;;;;;;7.80;3.42;;;;;;;19.82;53.77;95590.69;10460375;28;20029;-20
2021/12/09 22:15:30;;;;;;;6.30;3.55;;;;;;;19.81;53.72;95578.88;10465322;28;20033;-21
2021/12/09 22:20:31;;;;;;;8.95;2.97;;;;;;;19.71;53.73;95563.03;10462661;28;20033;-21
2021/12/09 22:25:31;;;;;;;7.18;2.78;;;;;;;19.79;53.64;95565.38;10463574;28;20112;-22
2021/12/09 22:30:32;;;;;;;9.35;2.85;;;;;;;19.67;53.59;95533.47;10465319;28;20025;-21
2021/12/09 22:35:33;;;;;;;5.32;2.58;;;;;;;19.86;53.20;95549.94;10459741;28;20025;-21
2021/12/09 22:40:33;;;;;;;6.18;2.63;;;;;;;19.81;53.58;95534.00;10468357;28;20025;-21
2021/12/09 22:45:33;;;;;;;5.82;2.50;;;;;;;19.81;53.28;95528.06;10458879;28;20041;-21
2021/12/09 22:50:34;;;;;;;6.07;2.93;;;;;;;19.80;53.36;95506.09;10459398;28;20025;-21
2021/12/09 22:55:36;;;;;;;8.13;2.72;;;;;;;19.78;53.36;95492.59;10460090;28;20028;-21
2021/12/09 23:00:43;;;;;;;4.72;2.60;;;;;;;19.79;53.20;95484.97;10463597;28;20039;-22
2021/12/09 23:05:48;;;;;;;9.23;2.90;;;;;;;19.76;53.51;95472.31;10466453;28;20291;-21
2021/12/09 23:10:50;;;;;;;4.28;2.47;;;;;;;19.78;53.21;95444.34;10458080;28;20052;-21
2021/12/09 23:15:54;;;;;;;7.63;2.70;;;;;;;19.68;53.16;95412.44;10464093;28;20028;-21
2021/12/09 23:20:55;;;;;;;7.90;2.60;;;;;;;19.81;53.20;95412.09;10458972;28;20025;-22
2021/12/09 23:25:56;;;;;;;3.45;1.80;;;;;;;19.83;53.13;95396.81;10471988;28;20427;-22
2021/12/09 23:30:58;;;;;;;8.65;2.92;;;;;;;19.80;53.04;95390.13;10460373;28;20055;-22
2021/12/09 23:35:59;;;;;;;11.25;2.33;;;;;;;19.72;52.95;95368.31;10459485;28;20036;-21
2021/12/09 23:41:01;;;;;;;6.47;2.35;;;;;;;19.77;53.27;95369.84;10461154;28;20227;-21
2021/12/09 23:46:03;;;;;;;4.53;2.40;;;;;;;19.77;53.16;95361.44;10460711;28;20107;-21
2021/12/09 23:51:06;;;;;;;3.92;2.13;;;;;;;19.76;53.01;95337.72;10463350;28;20102;-21
2021/12/09 23:56:06;;;;;;;5.85;2.90;;;;;;;19.76;53.03;95321.69;10464539;28;20028;-21
